Time;durP1;ratioP1;P1;durP2;ratioP2;P2;SDS_P1;SDS_P2;PMS_P1;PMS_P2;Temp;Humidity;BMP_temperature;BMP_pressure;BME280_temperature;BME280_humidity;BME280_pressure;Samples;Min_cycle;Max_cycle;Signal;HPM_P1;HPM_P2
2023/04/20 00:02:16;;;;;;;1.98;0.80;;;;;;;18.98;28.27;102094.94;16121555;19;130915;-47
2023/04/20 00:07:40;;;;;;;1.83;0.90;;;;;;;18.95;28.34;102093.47;16119628;19;129194;-47
2023/04/20 00:13:02;;;;;;;1.45;0.95;;;;;;;18.94;28.47;102096.44;16122272;19;129584;-46
2023/04/20 00:18:24;;;;;;;1.30;0.70;;;;;;;18.90;28.19;102090.50;16125731;19;130147;-46
2023/04/20 00:23:46;;;;;;;1.95;0.73;;;;;;;18.87;28.22;102079.84;16126453;19;129722;-50
2023/04/20 00:29:08;;;;;;;2.40;0.93;;;;;;;18.85;28.72;102081.97;16122882;19;130676;-47
2023/04/20 00:34:30;;;;;;;2.47;0.85;;;;;;;18.83;28.50;102070.28;16114658;19;129422;-47
2023/04/20 00:39:52;;;;;;;1.08;0.80;;;;;;;18.81;28.73;102070.47;16120792;19;130948;-45
2023/04/20 00:45:13;;;;;;;1.05;0.80;;;;;;;18.79;28.33;102063.47;16119014;19;129646;-45
2023/04/20 00:50:37;;;;;;;2.97;0.75;;;;;;;18.77;28.57;102064.53;16118951;19;129450;-45
2023/04/20 00:55:59;;;;;;;1.45;0.80;;;;;;;18.76;28.35;102062.81;16117728;19;129745;-48
2023/04/20 01:01:21;;;;;;;0.90;0.60;;;;;;;18.74;28.45;102048.34;16120848;19;129567;-45
2023/04/20 01:06:43;;;;;;;1.05;0.70;;;;;;;18.71;28.83;102045.16;16117033;19;131207;-46
2023/04/20 01:12:06;;;;;;;1.80;0.77;;;;;;;18.69;28.50;102037.06;16120576;19;133981;-50
2023/04/20 01:17:28;;;;;;;1.58;0.80;;;;;;;18.66;28.73;102034.72;16118103;19;130296;-46
2023/04/20 01:22:53;;;;;;;1.05;0.60;;;;;;;18.66;28.55;102028.31;16122005;19;130267;-46
2023/04/20 01:28:15;;;;;;;1.20;0.83;;;;;;;18.64;28.62;102025.78;16117278;19;129912;-49
2023/04/20 01:33:37;;;;;;;1.27;0.60;;;;;;;18.61;28.34;102009.56;16115516;19;129638;-49
2023/04/20 01:39:00;;;;;;;1.30;0.80;;;;;;;18.60;28.59;102016.19;16115275;19;130937;-47
2023/04/20 01:44:21;;;;;;;1.67;0.90;;;;;;;18.57;28.73;102003.63;16116698;19;129867;-50
2023/04/20 01:49:43;;;;;;;1.08;0.60;;;;;;;18.55;28.20;102000.22;16120678;19;130900;-46
2023/04/20 01:55:06;;;;;;;3.25;0.90;;;;;;;18.53;28.69;101993.22;16115779;19;131085;-49
2023/04/20 02:00:28;;;;;;;2.55;0.88;;;;;;;18.51;28.49;101987.91;16115783;19;129767;-46
2023/04/20 02:05:50;;;;;;;2.17;1.08;;;;;;;18.49;28.44;101983.63;16114407;19;130617;-51
2023/04/20 02:11:11;;;;;;;0.70;0.70;;;;;;;18.49;28.22;101983.63;16116737;19;130905;-49
2023/04/20 02:16:34;;;;;;;2.10;0.70;;;;;;;18.47;27.83;101975.53;16115776;19;130418;-49
2023/04/20 02:21:56;;;;;;;3.55;1.10;;;;;;;18.45;28.14;101975.78;16116778;19;129310;-47
2023/04/20 02:27:18;;;;;;;1.10;0.77;;;;;;;18.44;28.19;101964.88;16115551;19;131629;-44
2023/04/20 02:32:40;;;;;;;2.53;0.85;;;;;;;18.42;27.88;101958.72;16114533;19;130403;-51
2023/04/20 02:38:02;;;;;;;1.17;0.90;;;;;;;18.41;27.67;101951.47;16116662;19;132083;-48
2023/04/20 02:43:23;;;;;;;4.90;1.00;;;;;;;18.39;27.59;101951.69;16116880;19;129368;-50
2023/04/20 02:48:45;;;;;;;2.40;0.90;;;;;;;18.37;27.96;101948.25;16116913;19;129379;-47
2023/04/20 02:54:07;;;;;;;0.63;0.60;;;;;;;18.35;27.98;101933.78;16112450;19;130350;-47
2023/04/20 02:59:29;;;;;;;0.93;0.70;;;;;;;18.33;27.59;101924.84;16109990;19;129869;-48
2023/04/20 03:04:51;;;;;;;1.50;0.88;;;;;;;18.32;27.91;101923.16;16107709;19;130371;-48
2023/04/20 03:10:13;;;;;;;1.75;1.15;;;;;;;18.31;27.50;101918.69;16109576;19;131915;-52
2023/04/20 03:15:35;;;;;;;2.72;0.95;;;;;;;18.28;27.37;101921.88;16110460;19;131176;-50
2023/04/20 03:20:57;;;;;;;1.48;0.88;;;;;;;18.27;27.87;101909.09;16111966;19;129726;-48
2023/04/20 03:26:19;;;;;;;2.05;0.98;;;;;;;18.22;27.38;101906.13;16112876;19;130043;-47
2023/04/20 03:31:41;;;;;;;1.48;0.93;;;;;;;18.21;27.34;101902.53;16111871;19;129404;-48
2023/04/20 03:37:03;;;;;;;3.75;0.98;;;;;;;18.20;27.28;101891.69;16111502;19;131267;-47
2023/04/20 03:42:25;;;;;;;2.20;0.80;;;;;;;18.17;27.20;101881.03;16111353;19;133624;-45
2023/04/20 03:47:47;;;;;;;3.15;0.98;;;;;;;18.17;27.20;101881.03;16108551;19;129638;-48
2023/04/20 03:53:09;;;;;;;2.08;0.90;;;;;;;18.14;27.26;101866.53;16107420;19;129699;-47
2023/04/20 03:58:30;;;;;;;3.10;0.70;;;;;;;18.12;27.48;101863.16;16110787;19;129948;-45
2023/04/20 04:03:52;;;;;;;3.78;1.40;;;;;;;18.10;27.41;101859.75;16120513;19;131404;-47
2023/04/20 04:09:15;;;;;;;3.38;1.63;;;;;;;18.08;27.32;101864.69;16123197;19;130505;-48
2023/04/20 04:14:37;;;;;;;1.42;0.80;;;;;;;18.07;26.89;101854.66;16125276;19;130981;-45
2023/04/20 04:19:59;;;;;;;1.83;1.10;;;;;;;18.05;27.06;101851.25;16122909;19;130189;-50
2023/04/20 04:25:22;;;;;;;3.47;1.00;;;;;;;18.03;26.91;101850.63;16124131;19;129545;-49
2023/04/20 04:30:44;;;;;;;5.55;1.13;;;;;;;18.03;27.35;101841.47;16121389;19;129814;-50
2023/04/20 04:36:06;;;;;;;2.00;1.20;;;;;;;18.01;27.31;101836.16;16121693;19;130528;-51
2023/04/20 04:41:28;;;;;;;2.40;1.15;;;;;;;17.99;26.93;101828.06;16118853;19;129125;-47
2023/04/20 04:46:50;;;;;;;1.45;1.17;;;;;;;17.97;26.97;101827.44;16118288;19;131064;-48
2023/04/20 04:52:12;;;;;;;1.50;1.20;;;;;;;17.96;27.20;101833.22;16122050;19;129614;-47
2023/04/20 04:57:34;;;;;;;4.13;0.93;;;;;;;17.94;27.17;101818.72;16122272;19;129740;-49
2023/04/20 05:02:56;;;;;;;1.33;1.10;;;;;;;17.91;26.93;101811.69;16119982;19;130936;-47
2023/04/20 05:08:20;;;;;;;3.28;0.90;;;;;;;17.98;27.01;101806.13;16118536;19;130449;-48
2023/04/20 05:13:42;;;;;;;4.28;1.10;;;;;;;18.29;26.86;101790.63;16115309;19;129773;-49
2023/04/20 05:19:04;;;;;;;2.10;1.30;;;;;;;18.72;26.31;101784.34;16121185;19;131290;-48
2023/04/20 05:24:26;;;;;;;2.85;1.00;;;;;;;19.03;26.03;101788.16;16119108;19;131153;-45
2023/04/20 05:29:47;;;;;;;2.97;0.98;;;;;;;19.22;25.66;101793.75;16115410;19;131174;-46
2023/04/20 05:35:09;;;;;;;0.98;0.85;;;;;;;19.28;25.89;101789.19;16116437;19;129447;-46
2023/04/20 05:40:36;;;;;;;3.55;1.10;;;;;;;19.26;25.81;101789.44;16119586;19;129571;-46
2023/04/20 05:45:57;;;;;;;4.72;0.95;;;;;;;19.24;25.67;101790.75;16117538;19;129848;-49
2023/04/20 05:51:20;;;;;;;5.35;1.10;;;;;;;19.19;26.17;101802.50;16113183;19;129906;-46
2023/04/20 05:56:42;;;;;;;2.70;1.00;;;;;;;19.11;25.67;101805.56;16120420;19;131053;-44
2023/04/20 06:02:04;;;;;;;2.97;1.00;;;;;;;19.04;26.20;101820.34;16115016;19;129701;-47
2023/04/20 06:07:26;;;;;;;2.10;1.20;;;;;;;18.96;26.17;101814.25;16105827;19;131231;-49
2023/04/20 06:12:48;;;;;;;2.67;1.02;;;;;;;18.86;26.38;101817.50;16116215;19;131967;-46
2023/04/20 06:18:10;;;;;;;2.33;1.20;;;;;;;18.79;26.02;101819.50;16112453;19;129916;-46
2023/04/20 06:23:32;;;;;;;1.40;0.90;;;;;;;18.71;26.17;101799.28;16113611;19;129549;-52
2023/04/20 06:28:54;;;;;;;2.50;1.27;;;;;;;18.65;26.45;101794.66;16117602;19;129966;-47
2023/04/20 06:34:15;;;;;;;3.83;0.90;;;;;;;18.57;26.43;101786.63;16117442;19;129624;-50
2023/04/20 06:39:37;;;;;;;4.55;0.90;;;;;;;18.53;26.84;101796.47;16115221;19;129792;-47
2023/04/20 06:44:59;;;;;;;2.22;1.38;;;;;;;18.48;27.00;101785.19;16117567;19;129393;-45
2023/04/20 06:50:21;;;;;;;1.08;0.85;;;;;;;18.43;27.17;101766.47;16115519;19;130095;-51
2023/04/20 06:55:43;;;;;;;1.30;1.00;;;;;;;18.40;27.19;101764.19;16116052;19;129465;-47
2023/04/20 07:01:05;;;;;;;2.53;0.80;;;;;;;18.36;26.98;101766.50;16115316;19;133073;-47
2023/04/20 07:06:27;;;;;;;1.00;0.80;;;;;;;18.33;27.52;101763.31;16113374;19;130651;-48
2023/04/20 07:11:49;;;;;;;1.85;0.95;;;;;;;18.30;27.31;101759.09;16113988;19;130370;-47
2023/04/20 07:17:11;;;;;;;2.30;0.88;;;;;;;18.27;27.52;101765.94;16112563;19;129324;-49
2023/04/20 07:22:39;;;;;;;2.38;0.90;;;;;;;18.26;27.76;101753.16;16114836;19;130355;-47
2023/04/20 07:28:00;;;;;;;1.45;0.90;;;;;;;18.23;27.53;101739.75;16114066;19;130451;-49
2023/04/20 07:33:23;;;;;;;1.73;0.70;;;;;;;18.21;27.87;101741.88;16114532;19;130089;-48
2023/04/20 07:38:44;;;;;;;2.72;0.88;;;;;;;18.20;27.63;101742.13;16129004;19;129343;-46
2023/04/20 07:44:06;;;;;;;1.35;0.70;;;;;;;18.19;27.62;101734.88;16129885;19;130230;-50
2023/04/20 07:49:28;;;;;;;0.73;0.70;;;;;;;18.20;27.87;101734.66;16129933;19;129671;-52
2023/04/20 07:54:52;;;;;;;3.00;0.80;;;;;;;18.20;28.05;101719.97;16126064;19;129362;-48
2023/04/20 08:00:14;;;;;;;2.00;0.90;;;;;;;18.19;28.11;101727.41;16126921;19;132015;-50
2023/04/20 08:05:37;;;;;;;1.38;0.98;;;;;;;18.19;28.20;101730.19;16128114;19;130303;-48
2023/04/20 08:10:59;;;;;;;0.90;0.80;;;;;;;18.18;28.17;101719.34;16126606;19;129631;-48
2023/04/20 08:16:21;;;;;;;2.25;1.15;;;;;;;18.15;27.97;101723.41;16125517;19;129351;-47
2023/04/20 08:21:44;;;;;;;2.25;0.90;;;;;;;18.15;27.91;101717.88;16130542;19;129709;-47
2023/04/20 08:27:07;;;;;;;1.10;0.80;;;;;;;18.21;28.24;101705.03;16126675;19;129797;-50
2023/04/20 08:32:30;;;;;;;1.08;0.73;;;;;;;18.25;27.96;101700.72;16125471;19;129915;-47
2023/04/20 08:37:51;;;;;;;2.15;0.90;;;;;;;18.38;27.91;101700.63;16123895;19;131581;-49
2023/04/20 08:43:13;;;;;;;1.40;1.00;;;;;;;18.56;28.03;101699.03;16124007;19;130134;-48
2023/04/20 08:48:36;;;;;;;1.23;0.65;;;;;;;18.71;27.78;101693.97;16124766;19;131081;-48
2023/04/20 08:54:04;;;;;;;1.55;0.70;;;;;;;18.85;27.73;101694.69;16126019;19;129290;-47
2023/04/20 08:59:26;;;;;;;1.30;0.90;;;;;;;18.92;27.35;101695.47;16121943;19;129607;-47
2023/04/20 09:04:59;;;;;;;1.27;0.90;;;;;;;18.96;27.31;101698.63;16123751;19;130060;-45
2023/04/20 09:10:23;;;;;;;3.53;1.15;;;;;;;18.96;27.49;101690.28;16124134;19;129126;-48
2023/04/20 09:15:44;;;;;;;1.52;0.80;;;;;;;18.92;27.69;101686.31;16122832;19;129135;-51
2023/04/20 09:21:08;;;;;;;2.85;0.80;;;;;;;18.89;27.56;101686.75;16121763;19;129633;-45
2023/04/20 09:26:32;;;;;;;1.60;0.82;;;;;;;18.85;27.65;101672.50;16120995;19;130097;-47
2023/04/20 09:31:54;;;;;;;1.40;1.00;;;;;;;18.81;27.34;101682.34;16120310;19;129230;-46
2023/04/20 09:37:16;;;;;;;1.42;1.08;;;;;;;18.83;27.34;101676.59;16121619;19;130427;-49
2023/04/20 09:42:40;;;;;;;1.23;1.02;;;;;;;18.80;27.69;101668.75;16122044;19;130519;-47
2023/04/20 09:48:05;;;;;;;1.20;0.80;;;;;;;18.75;27.54;101656.41;16119699;19;129596;-53
2023/04/20 09:53:27;;;;;;;1.67;0.90;;;;;;;18.72;27.66;101662.41;16120984;19;129673;-47
2023/04/20 09:58:50;;;;;;;1.00;0.70;;;;;;;18.68;27.65;101654.78;16118842;19;129357;-48
2023/04/20 10:04:13;;;;;;;1.70;0.70;;;;;;;18.61;27.77;101655.69;16117776;19;130810;-46
2023/04/20 10:09:36;;;;;;;2.38;0.60;;;;;;;18.57;28.10;101648.06;16118123;19;131879;-44
2023/04/20 10:15:00;;;;;;;1.30;0.70;;;;;;;18.52;27.86;101639.59;16120312;19;129897;-48
2023/04/20 10:20:24;;;;;;;0.98;0.70;;;;;;;18.47;28.29;101634.72;16120859;19;129418;-49
2023/04/20 10:26:00;;;;;;;1.88;0.70;;;;;;;18.44;28.17;101638.81;16114897;19;137335;-50
2023/04/20 10:31:23;;;;;;;0.93;0.65;;;;;;;18.37;28.35;101640.75;16118837;19;131286;-48
2023/04/20 10:36:46;;;;;;;1.02;0.52;;;;;;;18.34;28.22;101621.81;16116594;19;129733;-48
2023/04/20 10:42:08;;;;;;;2.25;0.60;;;;;;;18.31;28.34;101622.28;16117747;19;129247;-46
2023/04/20 10:47:32;;;;;;;1.70;0.70;;;;;;;18.29;28.42;101616.97;16120219;19;129505;-46
2023/04/20 10:52:54;;;;;;;1.27;0.63;;;;;;;18.25;28.51;101612.97;16120159;19;129612;-46
2023/04/20 10:58:23;;;;;;;1.65;0.52;;;;;;;18.29;28.46;101616.13;16118864;19;129487;-49
2023/04/20 11:03:52;;;;;;;1.10;0.73;;;;;;;18.31;28.56;101608.44;16119977;19;130705;-51
2023/04/20 11:09:23;;;;;;;1.00;0.80;;;;;;;18.33;28.63;101600.75;16115606;19;129320;-46
2023/04/20 11:14:53;;;;;;;1.45;0.50;;;;;;;18.34;28.37;101590.50;16134839;19;135347;-47
2023/04/20 11:20:17;;;;;;;1.75;0.80;;;;;;;18.32;28.54;101585.22;16132908;19;131047;-45
2023/04/20 11:25:49;;;;;;;2.05;0.80;;;;;;;18.30;28.27;101581.81;16130099;19;129708;-50
2023/04/20 11:31:17;;;;;;;1.48;0.52;;;;;;;18.29;28.67;101572.63;16133632;19;128996;-46
2023/04/20 11:36:40;;;;;;;0.82;0.50;;;;;;;18.29;28.55;101557.97;16131417;19;129883;-45
2023/04/20 11:42:03;;;;;;;1.17;0.50;;;;;;;18.29;28.62;101558.78;16130317;19;130519;-50
2023/04/20 11:47:25;;;;;;;0.65;0.45;;;;;;;18.31;28.52;101555.81;16130785;19;133120;-47
2023/04/20 11:52:47;;;;;;;0.63;0.50;;;;;;;18.30;28.24;101554.13;16131977;19;130870;-53
2023/04/20 11:58:09;;;;;;;0.65;0.55;;;;;;;18.28;28.27;101545.19;16129012;19;130882;-48
2023/04/20 12:03:31;;;;;;;0.70;0.70;;;;;;;18.26;28.37;101542.66;16128959;19;130571;-50
2023/04/20 12:08:55;;;;;;;0.55;0.50;;;;;;;18.24;28.66;101543.94;16126691;19;131132;-47
2023/04/20 12:14:16;;;;;;;1.27;0.70;;;;;;;18.21;28.52;101552.72;16126682;19;131936;-47
2023/04/20 12:19:38;;;;;;;1.05;0.70;;;;;;;18.17;28.88;101552.31;16130413;19;129871;-47
2023/04/20 12:25:00;;;;;;;0.82;0.52;;;;;;;18.15;28.49;101544.25;16128959;19;130114;-50
2023/04/20 12:30:22;;;;;;;1.27;0.60;;;;;;;18.14;28.71;101537.00;16126806;19;131126;-50
2023/04/20 12:35:44;;;;;;;3.50;0.77;;;;;;;18.12;28.62;101547.44;16129295;19;129472;-51
2023/04/20 12:41:06;;;;;;;4.28;1.05;;;;;;;18.11;29.00;101550.47;16121010;19;129983;-49
2023/04/20 12:46:28;;;;;;;1.25;0.60;;;;;;;18.10;28.92;101552.38;16121602;19;130464;-49
2023/04/20 12:51:50;;;;;;;2.80;0.70;;;;;;;18.08;28.77;101550.91;16123489;19;131172;-47
2023/04/20 12:57:12;;;;;;;2.40;0.80;;;;;;;18.04;29.33;101574.56;16128690;19;129609;-48
2023/04/20 13:02:34;;;;;;;2.55;0.63;;;;;;;18.04;29.01;101566.28;16124402;19;130243;-47
2023/04/20 13:07:56;;;;;;;1.17;0.63;;;;;;;18.04;29.02;101557.97;16124442;19;130007;-48
2023/04/20 13:13:18;;;;;;;1.73;0.80;;;;;;;18.04;29.27;101550.53;16125719;19;130602;-51
2023/04/20 13:18:40;;;;;;;3.08;0.70;;;;;;;18.06;29.13;101540.06;16124222;19;135349;-49
2023/04/20 13:24:02;;;;;;;1.58;0.70;;;;;;;18.08;29.44;101532.38;16123105;19;129457;-45
2023/04/20 13:29:24;;;;;;;1.42;0.80;;;;;;;18.12;29.41;101522.53;16123483;19;129433;-45
2023/04/20 13:34:46;;;;;;;2.35;0.70;;;;;;;18.14;29.60;101523.16;16118970;19;129548;-46
2023/04/20 13:40:09;;;;;;;0.88;0.60;;;;;;;18.14;29.51;101520.38;16123939;19;130151;-46
2023/04/20 13:45:30;;;;;;;1.25;0.63;;;;;;;18.13;29.35;101515.91;16120525;19;129252;-50
2023/04/20 13:50:53;;;;;;;1.30;0.63;;;;;;;18.11;29.77;101518.06;16122189;19;131788;-49
2023/04/20 13:56:15;;;;;;;2.95;0.50;;;;;;;18.10;29.86;101523.84;16121466;19;129944;-49
2023/04/20 14:01:37;;;;;;;0.70;0.60;;;;;;;18.06;29.86;101551.16;16118531;19;129005;-47
2023/04/20 14:06:59;;;;;;;1.75;0.63;;;;;;;18.03;29.79;101528.63;16119710;19;130151;-47
2023/04/20 14:12:21;;;;;;;0.98;0.50;;;;;;;18.12;29.94;101530.84;16118163;19;129871;-48
2023/04/20 14:17:43;;;;;;;1.48;0.50;;;;;;;18.51;29.54;101515.97;16120842;19;129179;-45
2023/04/20 14:23:05;;;;;;;2.25;0.50;;;;;;;19.01;29.49;101510.22;16121045;19;132927;-47
2023/04/20 14:28:30;;;;;;;2.70;0.60;;;;;;;19.49;28.74;101502.06;16120128;19;129935;-48
2023/04/20 14:33:53;;;;;;;1.50;0.60;;;;;;;19.85;28.52;101500.19;16115344;19;131121;-47
2023/04/20 14:39:18;;;;;;;1.95;0.60;;;;;;;20.01;28.63;101495.88;16118682;19;129650;-47
2023/04/20 14:44:40;;;;;;;1.83;0.53;;;;;;;20.04;28.27;101483.44;16118438;19;131211;-45
2023/04/20 14:50:03;;;;;;;0.70;0.50;;;;;;;19.99;28.56;101473.03;16116584;19;129337;-51
2023/04/20 14:55:25;;;;;;;2.85;0.60;;;;;;;19.88;28.57;101469.16;16121160;19;133773;-48
2023/04/20 15:00:50;;;;;;;0.80;0.50;;;;;;;19.75;28.72;101453.59;16114827;19;129209;-45
2023/04/20 15:06:12;;;;;;;2.53;0.60;;;;;;;19.63;29.11;101455.53;16113422;19;129193;-48
2023/04/20 15:11:34;;;;;;;1.30;0.70;;;;;;;19.52;28.86;101454.44;16114288;19;129597;-49
2023/04/20 15:16:56;;;;;;;1.33;0.50;;;;;;;19.44;29.13;101449.25;16117010;19;129549;-46
2023/04/20 15:22:18;;;;;;;1.05;0.70;;;;;;;19.34;29.30;101436.78;16112377;19;130596;-52
2023/04/20 15:27:40;;;;;;;1.52;0.70;;;;;;;19.22;29.55;101444.22;16111150;19;129601;-51
2023/04/20 15:33:02;;;;;;;5.00;0.85;;;;;;;19.13;29.47;101432.63;16114526;19;130745;-48
2023/04/20 15:38:25;;;;;;;2.17;0.90;;;;;;;19.13;29.85;101434.53;16114645;19;132558;-48
2023/04/20 15:43:47;;;;;;;2.45;0.80;;;;;;;19.16;29.85;101428.53;16113558;19;130156;-47
2023/04/20 15:49:09;;;;;;;2.35;0.95;;;;;;;19.17;29.57;101424.66;16113341;19;130933;-47
2023/04/20 15:54:31;;;;;;;3.17;0.90;;;;;;;19.27;29.86;101427.72;16110395;19;128939;-48
2023/04/20 15:59:53;;;;;;;6.28;0.90;;;;;;;19.50;29.16;101426.06;16125451;19;129909;-47
2023/04/20 16:05:15;;;;;;;3.78;0.90;;;;;;;19.75;29.22;101419.44;16128839;19;129563;-46
2023/04/20 16:10:37;;;;;;;4.95;1.13;;;;;;;19.97;28.96;101423.28;16102789;19;131173;-48
2023/04/20 16:15:59;;;;;;;5.32;1.00;;;;;;;20.15;29.32;101415.91;16115744;19;129606;-46
2023/04/20 16:21:22;;;;;;;4.43;1.25;;;;;;;20.31;28.96;101422.63;16123902;19;129773;-49
2023/04/20 16:26:45;;;;;;;3.88;1.13;;;;;;;20.42;28.82;101427.31;16127747;19;130148;-49
2023/04/20 16:32:06;;;;;;;9.57;1.20;;;;;;;20.50;28.80;101426.09;16124914;19;130156;-48
2023/04/20 16:37:32;;;;;;;6.10;1.35;;;;;;;20.56;29.11;101430.63;16128008;19;129515;-46
2023/04/20 16:42:54;;;;;;;10.43;1.40;;;;;;;20.53;29.05;101431.16;16124831;19;129442;-48
2023/04/20 16:48:16;;;;;;;5.53;1.10;;;;;;;20.45;28.79;101424.06;16125316;19;130209;-46
2023/04/20 16:53:38;;;;;;;6.15;1.52;;;;;;;20.37;29.00;101420.81;16122591;19;130070;-47
2023/04/20 16:59:00;;;;;;;6.45;1.40;;;;;;;20.24;29.49;101425.56;16120416;19;133449;-45
2023/04/20 17:04:21;;;;;;;8.40;1.77;;;;;;;20.09;29.60;101414.09;16118300;19;129613;-48
2023/04/20 17:09:44;;;;;;;10.80;1.20;;;;;;;19.96;29.69;101420.75;16123168;19;130451;-46
2023/04/20 17:15:06;;;;;;;3.88;1.05;;;;;;;19.83;29.87;101422.69;16119302;19;129590;-48
2023/04/20 17:20:28;;;;;;;10.93;1.15;;;;;;;19.74;30.13;101434.41;16119786;19;130130;-49
2023/04/20 17:25:50;;;;;;;4.95;1.42;;;;;;;19.62;30.02;101424.13;16114572;19;132417;-49
2023/04/20 17:31:12;;;;;;;19.15;2.05;;;;;;;19.50;30.08;101439.94;16117338;19;130932;-43
2023/04/20 17:36:34;;;;;;;20.80;1.60;;;;;;;19.42;30.64;101455.00;16114645;19;130855;-46
2023/04/20 17:41:55;;;;;;;5.45;1.23;;;;;;;19.32;30.62;101444.47;16036067;19;130325;-46
2023/04/20 17:47:20;;;;;;;6.82;1.75;;;;;;;19.27;31.35;101440.75;16113531;19;130880;-44
2023/04/20 17:52:42;;;;;;;7.38;1.52;;;;;;;19.27;31.48;101443.50;16116292;19;131695;-43
2023/04/20 17:58:04;;;;;;;15.20;1.55;;;;;;;19.31;31.84;101451.16;16113848;19;130099;-45
2023/04/20 18:03:26;;;;;;;8.10;0.80;;;;;;;19.41;32.34;101455.25;16117759;19;129999;-44
2023/04/20 18:08:49;;;;;;;4.95;0.80;;;;;;;19.52;32.04;101459.97;16117174;19;129749;-42
2023/04/20 18:14:10;;;;;;;3.47;0.73;;;;;;;19.61;32.39;101458.53;16117509;19;131527;-44
2023/04/20 18:19:35;;;;;;;5.97;0.90;;;;;;;19.69;32.41;101460.94;16117205;19;129513;-42
2023/04/20 18:24:57;;;;;;;5.75;0.80;;;;;;;19.90;32.65;101460.59;16114874;19;129697;-50
2023/04/20 18:30:19;;;;;;;6.97;1.08;;;;;;;20.19;32.46;101458.78;16113847;19;130305;-45
2023/04/20 18:35:42;;;;;;;10.30;0.95;;;;;;;20.52;32.35;101456.41;16114568;19;129475;-49
2023/04/20 18:41:04;;;;;;;2.55;0.70;;;;;;;20.78;32.11;101452.25;16117308;19;130097;-51
2023/04/20 18:46:26;;;;;;;8.80;1.10;;;;;;;20.89;32.01;101456.06;16114909;19;129515;-43
2023/04/20 18:51:47;;;;;;;12.45;0.80;;;;;;;20.89;31.80;101451.34;16115480;19;129714;-45
2023/04/20 18:57:09;;;;;;;3.38;0.80;;;;;;;20.86;31.84;101457.41;16112888;19;129643;-43
2023/04/20 19:02:31;;;;;;;4.82;0.80;;;;;;;20.86;31.93;101464.91;16111773;19;130719;-44
2023/04/20 19:07:54;;;;;;;2.70;0.93;;;;;;;20.92;31.88;101460.28;16112837;19;129489;-44
2023/04/20 19:13:16;;;;;;;2.17;0.70;;;;;;;21.02;31.84;101466.88;16111603;19;130447;-46
2023/04/20 19:18:38;;;;;;;2.28;0.80;;;;;;;21.10;32.19;101468.41;16109044;19;129613;-46
2023/04/20 19:24:00;;;;;;;4.45;0.90;;;;;;;21.15;31.90;101462.94;16107367;19;131266;-45
2023/04/20 19:29:22;;;;;;;4.15;0.70;;;;;;;21.17;32.01;101466.31;16111810;19;129491;-47
2023/04/20 19:34:44;;;;;;;2.38;0.68;;;;;;;21.16;32.04;101464.63;16127281;19;131290;-51
2023/04/20 19:40:07;;;;;;;4.90;0.90;;;;;;;21.12;31.83;101460.66;16129515;19;129396;-54
2023/04/20 19:45:29;;;;;;;6.13;1.00;;;;;;;21.06;32.19;101453.31;16126944;19;129614;-50
2023/04/20 19:50:51;;;;;;;3.00;0.90;;;;;;;20.96;31.96;101451.19;16129709;19;129656;-45
2023/04/20 19:56:13;;;;;;;10.25;1.85;;;;;;;20.86;31.73;101449.06;16130506;19;129382;-48
2023/04/20 20:01:35;;;;;;;9.48;1.10;;;;;;;20.78;32.01;101443.91;16128196;19;129499;-50
2023/04/20 20:06:57;;;;;;;6.57;1.58;;;;;;;20.70;32.26;101438.69;16130707;19;132133;-47
2023/04/20 20:12:19;;;;;;;7.38;1.70;;;;;;;20.63;32.25;101440.78;16127703;19;129424;-49
2023/04/20 20:17:44;;;;;;;11.38;1.40;;;;;;;20.53;32.54;101436.72;16126309;19;129744;-51
2023/04/20 20:23:05;;;;;;;12.73;1.60;;;;;;;20.43;32.54;101430.97;16129119;19;129684;-52
2023/04/20 20:28:28;;;;;;;9.82;1.35;;;;;;;20.33;32.44;101425.16;16134389;19;129719;-45
2023/04/20 20:33:50;;;;;;;15.20;1.50;;;;;;;20.22;32.37;101430.50;16124007;19;130515;-49
2023/04/20 20:39:13;;;;;;;7.03;1.40;;;;;;;20.12;32.09;101444.19;16132874;19;130966;-40
2023/04/20 20:44:37;;;;;;;9.15;1.60;;;;;;;20.02;32.50;101432.84;16127341;19;129955;-40
2023/04/20 20:49:59;;;;;;;10.47;1.57;;;;;;;19.93;32.11;101449.84;16126100;19;129579;-40
2023/04/20 20:55:21;;;;;;;10.13;1.35;;;;;;;19.83;32.04;101430.16;16128105;19;129493;-41
2023/04/20 21:00:45;;;;;;;5.63;1.38;;;;;;;19.76;32.41;101437.78;16124959;19;129596;-42
2023/04/20 21:06:07;;;;;;;5.97;1.20;;;;;;;19.65;32.09;101445.88;16124215;19;129585;-43
2023/04/20 21:11:29;;;;;;;2.75;1.00;;;;;;;19.56;32.04;101439.00;16123502;19;131886;-40
2023/04/20 21:16:51;;;;;;;4.10;0.90;;;;;;;19.50;32.19;101440.81;16122493;19;130764;-43
2023/04/20 21:22:13;;;;;;;1.88;1.10;;;;;;;19.45;32.18;101442.56;16125297;19;131823;-44
2023/04/20 21:27:35;;;;;;;2.75;0.85;;;;;;;19.37;32.02;101441.84;16122135;19;129500;-41
2023/04/20 21:32:57;;;;;;;3.72;1.00;;;;;;;19.32;32.13;101432.56;16124457;19;129268;-47
2023/04/20 21:38:19;;;;;;;3.10;1.00;;;;;;;19.28;32.28;101436.88;16121950;19;131443;-43
2023/04/20 21:43:41;;;;;;;2.90;0.88;;;;;;;19.22;32.59;101447.00;16115815;19;129520;-44
2023/04/20 21:49:04;;;;;;;1.30;0.90;;;;;;;19.17;32.15;101456.00;16122225;19;129105;-44
2023/04/20 21:54:26;;;;;;;4.80;0.98;;;;;;;19.13;32.31;101463.13;16117363;19;131031;-41
2023/04/20 21:59:47;;;;;;;5.22;0.90;;;;;;;19.08;32.46;101458.28;16120772;19;129998;-41
2023/04/20 22:05:10;;;;;;;1.77;0.90;;;;;;;19.05;32.24;101461.53;16121724;19;129153;-42
2023/04/20 22:10:32;;;;;;;3.97;1.10;;;;;;;19.01;32.60;101443.66;16119719;19;130979;-42
2023/04/20 22:15:54;;;;;;;1.55;0.80;;;;;;;18.97;32.31;101450.75;16119987;19;129656;-41
2023/04/20 22:21:16;;;;;;;1.23;0.90;;;;;;;18.92;32.11;101445.94;16119108;19;130950;-41
2023/04/20 22:26:38;;;;;;;2.38;0.98;;;;;;;18.90;32.24;101436.16;16118410;19;132033;-42
2023/04/20 22:32:00;;;;;;;1.05;0.80;;;;;;;18.87;32.42;101433.84;16120263;19;129948;-41
2023/04/20 22:37:21;;;;;;;3.85;0.80;;;;;;;18.82;32.53;101428.19;16115460;19;130720;-42
2023/04/20 22:42:44;;;;;;;0.70;0.70;;;;;;;18.79;32.14;101412.84;16115971;19;131741;-41
2023/04/20 22:48:06;;;;;;;2.83;0.90;;;;;;;18.76;32.11;101418.88;16115868;19;131202;-42
2023/04/20 22:53:28;;;;;;;1.25;0.77;;;;;;;18.74;32.41;101421.03;16117117;19;131126;-40
2023/04/20 22:58:50;;;;;;;1.30;0.80;;;;;;;18.71;32.23;101411.25;16116293;19;130114;-41
2023/04/20 23:04:12;;;;;;;2.22;1.23;;;;;;;18.69;32.34;101418.13;16114653;19;130467;-42
2023/04/20 23:09:38;;;;;;;1.45;1.00;;;;;;;18.66;32.24;101413.91;16148105;19;129828;-42
2023/04/20 23:15:00;;;;;;;1.27;0.90;;;;;;;18.61;32.14;101394.34;16149382;19;135999;-41
2023/04/20 23:20:22;;;;;;;2.72;1.00;;;;;;;18.59;32.13;101388.19;16146023;19;129607;-41
2023/04/20 23:25:44;;;;;;;1.25;0.85;;;;;;;18.57;32.53;101384.84;16145401;19;129592;-41
2023/04/20 23:31:06;;;;;;;2.75;0.77;;;;;;;18.54;32.52;101363.97;16147295;19;129545;-43
2023/04/20 23:36:28;;;;;;;1.23;0.77;;;;;;;18.52;32.50;101351.44;16146892;19;131188;-42
2023/04/20 23:41:50;;;;;;;1.67;0.75;;;;;;;18.50;32.48;101348.03;16143829;19;130077;-42
2023/04/20 23:47:13;;;;;;;0.63;0.60;;;;;;;18.48;32.27;101339.13;16144252;19;130264;-40
2023/04/20 23:52:35;;;;;;;1.00;0.77;;;;;;;18.47;32.51;101324.44;16143457;19;130388;-41
2023/04/20 23:57:59;;;;;;;1.25;0.80;;;;;;;18.44;32.49;101325.75;16146350;19;129714;-46
